Eleven Point River (Missouri), Ravenden Springs (07072000)

StateMissouriLatestHigh (1840 cfs)
RiverEleven Point RiverRatingObservedEstimated
Updated2021-04-10 21:45 (1 hour ago)Flood - The river is flooding. Obstacles can be treacherous or deadly. The river should be avoided at this stage for casual trips and definitely for the inexperienced. Trips should be attempted only with protective gear and equipment.Flood(none)3301
Discharge1840 cfs (median: 1390 cfs)High - The river is high and potentially dangerous, especially for the young and / or inexperienced. Normal stream obstacles are sometimes difficult to navigate. Extended distances can be attempted, but canoe travel may not be advisable.High(none)1442
Height4.82 feetGood - Conditions are ideal for a canoe or kayak. Boats typically will drag on fewer than one-quarter of riffles, if at all, and portages are unnecessary or rare. Normal float lengths can be attempted without a problem.Good(none)1037
TrendSteady (rising over 24 hours)Low - River is low but can still be floated. Some riffles are okay but most come with significant dragging and might need a portage. Float lengths should be reduced to accommodate low flow, dragging, and portages.Low(none)785
USGSExternal icon USGS Site (External icon Google Maps)Poor - River is too low to float comfortably. Most or all riffles will drag or must be portaged and some obstacles (such as slick shelf rock) cause undue problems. Avoid the river at this stage for casual paddling trips.Poor(none)418

Trending Data

Plot Image

Trips for Eleven Point River (Missouri), Ravenden Springs (07072000)

DateStartEndDistanceConditionDischargeHeightFishingDetails

A total of 0 rows are displayed.

Condition Descriptions

Fishing Conditions

Fish Species

Notes

Classic Trip List

The classic River Trips application is still available for use. It is updated with the new system using a data retrofit. It is no longer maintained. The original River Trips application is no longer updated (as of 1 Dec 2016) but can be checked for errors or for the condition of the data before it was converted to the new system.

Gauge Data Table

ObservationHeightDischargeMaximum
Discharge
Minimum
Discharge
Mean
Discharge
P05P10P20P25P50
(Median)
P75P80P90P95
2021-04-10 21:45 4.82 1840 9550 (2008) 420 (1981) 1740 530 754 858 924 1390 2020 2370 3040 4600
2021-04-10 20:45 4.82 1840 9550 (2008) 420 (1981) 1740 530 754 858 924 1390 2020 2370 3040 4600
2021-04-10 19:45 4.83 1850 9550 (2008) 420 (1981) 1740 530 754 858 924 1390 2020 2370 3040 4600
2021-04-10 18:45 4.82 1840 9550 (2008) 420 (1981) 1740 530 754 858 924 1390 2020 2370 3040 4600
2021-04-10 17:45 4.82 1840 9550 (2008) 420 (1981) 1740 530 754 858 924 1390 2020 2370 3040 4600
2021-04-10 16:45 4.79 1820 9550 (2008) 420 (1981) 1740 530 754 858 924 1390 2020 2370 3040 4600
2021-04-10 15:45 4.77 1800 9550 (2008) 420 (1981) 1740 530 754 858 924 1390 2020 2370 3040 4600
2021-04-10 14:45 4.80 1830 9550 (2008) 420 (1981) 1740 530 754 858 924 1390 2020 2370 3040 4600
2021-04-10 13:45 4.79 1820 9550 (2008) 420 (1981) 1740 530 754 858 924 1390 2020 2370 3040 4600
2021-04-10 12:45 4.77 1800 9550 (2008) 420 (1981) 1740 530 754 858 924 1390 2020 2370 3040 4600
2021-04-10 11:45 4.79 1820 9550 (2008) 420 (1981) 1740 530 754 858 924 1390 2020 2370 3040 4600
2021-04-10 10:45 4.76 1800 9550 (2008) 420 (1981) 1740 530 754 858 924 1390 2020 2370 3040 4600
2021-04-10 09:45 4.79 1820 9550 (2008) 420 (1981) 1740 530 754 858 924 1390 2020 2370 3040 4600
2021-04-10 08:45 4.78 1810 9550 (2008) 420 (1981) 1740 530 754 858 924 1390 2020 2370 3040 4600
2021-04-10 07:45 4.79 1820 9550 (2008) 420 (1981) 1740 530 754 858 924 1390 2020 2370 3040 4600
2021-04-10 06:45 4.77 1800 9550 (2008) 420 (1981) 1740 530 754 858 924 1390 2020 2370 3040 4600
2021-04-10 05:45 4.78 1810 9550 (2008) 420 (1981) 1740 530 754 858 924 1390 2020 2370 3040 4600
2021-04-10 04:45 4.77 1800 9550 (2008) 420 (1981) 1740 530 754 858 924 1390 2020 2370 3040 4600
2021-04-10 03:45 4.73 1770 9550 (2008) 420 (1981) 1740 530 754 858 924 1390 2020 2370 3040 4600
2021-04-10 02:45 4.71 1760 9550 (2008) 420 (1981) 1740 530 754 858 924 1390 2020 2370 3040 4600
2021-04-10 01:45 4.72 1760 9550 (2008) 420 (1981) 1740 530 754 858 924 1390 2020 2370 3040 4600
2021-04-10 00:45 4.71 1760 9550 (2008) 420 (1981) 1740 530 754 858 924 1390 2020 2370 3040 4600
2021-04-09 23:45 4.71 1760 11100 (1942) 430 (1981) 1790 528 755 882 893 1390 2120 2300 2950 3800
2021-04-09 22:45 4.73 1770 11100 (1942) 430 (1981) 1790 528 755 882 893 1390 2120 2300 2950 3800
2021-04-09 21:45 4.72 1760 11100 (1942) 430 (1981) 1790 528 755 882 893 1390 2120 2300 2950 3800
2021-04-09 20:45 4.73 1770 11100 (1942) 430 (1981) 1790 528 755 882 893 1390 2120 2300 2950 3800
2021-04-09 19:45 4.74 1780 11100 (1942) 430 (1981) 1790 528 755 882 893 1390 2120 2300 2950 3800
2021-04-09 18:45 4.73 1770 11100 (1942) 430 (1981) 1790 528 755 882 893 1390 2120 2300 2950 3800
2021-04-09 17:45 4.74 1780 11100 (1942) 430 (1981) 1790 528 755 882 893 1390 2120 2300 2950 3800
2021-04-09 16:45 4.74 1780 11100 (1942) 430 (1981) 1790 528 755 882 893 1390 2120 2300 2950 3800
2021-04-09 15:45 4.74 1780 11100 (1942) 430 (1981) 1790 528 755 882 893 1390 2120 2300 2950 3800
2021-04-09 14:45 4.73 1770 11100 (1942) 430 (1981) 1790 528 755 882 893 1390 2120 2300 2950 3800
2021-04-09 13:45 4.73 1770 11100 (1942) 430 (1981) 1790 528 755 882 893 1390 2120 2300 2950 3800
2021-04-09 12:45 4.72 1760 11100 (1942) 430 (1981) 1790 528 755 882 893 1390 2120 2300 2950 3800
2021-04-09 11:45 4.75 1790 11100 (1942) 430 (1981) 1790 528 755 882 893 1390 2120 2300 2950 3800
2021-04-09 10:45 4.75 1790 11100 (1942) 430 (1981) 1790 528 755 882 893 1390 2120 2300 2950 3800
2021-04-09 08:30 4.76 1800 11100 (1942) 430 (1981) 1790 528 755 882 893 1390 2120 2300 2950 3800
2021-04-09 07:45 4.78 1810 11100 (1942) 430 (1981) 1790 528 755 882 893 1390 2120 2300 2950 3800
2021-04-09 06:45 4.77 1800 11100 (1942) 430 (1981) 1790 528 755 882 893 1390 2120 2300 2950 3800
2021-04-09 05:45 4.77 1800 11100 (1942) 430 (1981) 1790 528 755 882 893 1390 2120 2300 2950 3800
2021-04-09 04:45 4.78 1810 11100 (1942) 430 (1981) 1790 528 755 882 893 1390 2120 2300 2950 3800
2021-04-09 03:45 4.79 1820 11100 (1942) 430 (1981) 1790 528 755 882 893 1390 2120 2300 2950 3800
2021-04-09 02:45 4.80 1830 11100 (1942) 430 (1981) 1790 528 755 882 893 1390 2120 2300 2950 3800
2021-04-09 01:45 4.81 1840 11100 (1942) 430 (1981) 1790 528 755 882 893 1390 2120 2300 2950 3800
2021-04-09 00:45 4.81 1840 11100 (1942) 430 (1981) 1790 528 755 882 893 1390 2120 2300 2950 3800

A total of 45 rows are displayed for years 1930 through 2020.